createdAt,value
2018-03-04T00:00:46.808Z,52.30
2018-03-04T00:01:46.747Z,53.40
2018-03-04T00:02:46.689Z,54.90
2018-03-04T00:03:46.626Z,53.40
2018-03-04T00:04:46.563Z,51.60
2018-03-04T00:05:46.504Z,52.70
2018-03-04T00:06:46.441Z,51.70
2018-03-04T00:07:46.369Z,52.70
2018-03-04T00:08:46.319Z,52.70
2018-03-04T00:09:46.260Z,54.90
2018-03-04T00:10:46.195Z,52.30
2018-03-04T00:11:46.135Z,52.90
2018-03-04T00:12:46.073Z,53.80
2018-03-04T00:13:46.014Z,54.30
2018-03-04T00:14:45.954Z,54.70
2018-03-04T00:15:45.892Z,55.30
2018-03-04T00:16:45.829Z,54.10
2018-03-04T00:17:45.769Z,53.00
2018-03-04T00:18:45.707Z,52.90
2018-03-04T00:19:45.646Z,55.30
2018-03-04T00:20:45.583Z,56.60
2018-03-04T00:21:45.525Z,54.70
2018-03-04T00:22:45.462Z,52.90
2018-03-04T00:23:45.402Z,51.20
2018-03-04T00:24:45.339Z,53.50
2018-03-04T00:25:45.279Z,52.60
2018-03-04T00:26:45.218Z,55.40
2018-03-04T00:27:45.167Z,56.10
2018-03-04T00:28:45.094Z,55.30
2018-03-04T00:29:45.034Z,53.10
2018-03-04T00:30:44.970Z,52.50
2018-03-04T00:31:44.911Z,53.70
2018-03-04T00:32:44.857Z,51.90
2018-03-04T00:33:44.787Z,50.90
2018-03-04T00:34:44.727Z,49.90
2018-03-04T00:35:44.673Z,49.90
2018-03-04T00:36:44.639Z,46.70
2018-03-04T00:37:44.542Z,48.20
2018-03-04T00:38:44.486Z,47.50
2018-03-04T00:39:44.472Z,48.20
2018-03-04T00:40:44.361Z,46.30
2018-03-04T00:41:44.298Z,47.40
2018-03-04T00:42:44.235Z,46.20
2018-03-04T00:43:44.178Z,45.10
2018-03-04T00:44:44.115Z,46.20
2018-03-04T00:45:44.058Z,48.30
2018-03-04T00:46:44.000Z,46.70
2018-03-04T00:47:43.930Z,48.20
2018-03-04T00:48:43.868Z,49.30
2018-03-04T00:49:43.808Z,49.60
2018-03-04T00:50:43.748Z,47.80
2018-03-04T00:51:43.690Z,48.00
2018-03-04T00:52:43.625Z,48.10
2018-03-04T00:53:43.563Z,47.70
2018-03-04T00:54:43.502Z,45.70
2018-03-04T00:55:43.441Z,47.40
2018-03-04T00:56:43.378Z,47.10
2018-03-04T00:57:43.319Z,47.60
2018-03-04T00:58:43.257Z,46.80
2018-03-04T00:59:43.196Z,47.20
2018-03-04T01:00:43.137Z,48.60
2018-03-04T01:01:43.078Z,46.20
2018-03-04T01:02:43.011Z,46.70
2018-03-04T01:03:42.951Z,46.50
2018-03-04T01:04:42.890Z,48.30
2018-03-04T01:05:42.833Z,48.60
2018-03-04T01:06:42.764Z,48.50
2018-03-04T01:07:42.706Z,49.80
2018-03-04T01:08:42.646Z,49.80
2018-03-04T01:09:42.582Z,49.20
2018-03-04T01:10:42.522Z,49.30
2018-03-04T01:11:42.459Z,50.30
2018-03-04T01:12:42.396Z,47.80
2018-03-04T01:13:42.338Z,48.80
2018-03-04T01:14:42.274Z,50.80
2018-03-04T01:15:42.218Z,51.30
2018-03-04T01:16:42.150Z,51.70
2018-03-04T01:17:43.033Z,54.80
2018-03-04T01:18:42.029Z,55.80
2018-03-04T01:19:41.966Z,56.30
2018-03-04T01:20:41.905Z,57.30
2018-03-04T01:21:41.846Z,58.70
2018-03-04T01:22:41.788Z,53.80
2018-03-04T01:23:41.719Z,54.10
2018-03-04T01:24:41.656Z,54.70
2018-03-04T01:25:41.596Z,55.80
2018-03-04T01:26:41.532Z,58.00
2018-03-04T01:27:41.470Z,55.00
2018-03-04T01:28:41.411Z,55.10
2018-03-04T01:29:41.348Z,53.90
2018-03-04T01:30:41.287Z,56.70
2018-03-04T01:31:41.226Z,57.00
2018-03-04T01:32:41.162Z,55.90
2018-03-04T01:33:41.107Z,54.70
2018-03-04T01:34:41.037Z,54.60
2018-03-04T01:35:40.978Z,55.60
2018-03-04T01:36:40.915Z,52.70
2018-03-04T01:37:40.853Z,56.10
2018-03-04T01:38:40.793Z,55.90
2018-03-04T01:39:40.728Z,54.20
2018-03-04T01:40:40.667Z,53.70
2018-03-04T01:41:40.606Z,54.10
2018-03-04T01:42:40.562Z,56.70
2018-03-04T01:43:40.478Z,56.90
2018-03-04T01:44:40.423Z,58.10
2018-03-04T01:45:40.358Z,59.70
2018-03-04T01:46:40.295Z,62.00
2018-03-04T01:47:40.238Z,61.50
2018-03-04T01:48:40.171Z,61.50
2018-03-04T01:49:40.109Z,62.40
2018-03-04T01:50:40.047Z,59.00
2018-03-04T01:51:39.986Z,57.70
2018-03-04T01:52:39.928Z,56.50
2018-03-04T01:53:39.862Z,57.90
2018-03-04T01:54:39.803Z,56.60
2018-03-04T01:55:39.741Z,58.70
2018-03-04T01:56:39.678Z,63.40
2018-03-04T01:57:39.614Z,63.30
2018-03-04T01:58:39.552Z,63.10
2018-03-04T01:59:39.490Z,62.70
2018-03-04T02:00:39.431Z,63.50
2018-03-04T02:01:39.368Z,63.60
2018-03-04T02:02:39.306Z,62.00
2018-03-04T02:03:39.244Z,61.10
2018-03-04T02:04:39.183Z,62.40
2018-03-04T02:05:39.119Z,62.00
2018-03-04T02:06:39.058Z,60.10
2018-03-04T02:07:39.000Z,57.00
2018-03-04T02:08:38.936Z,60.20
2018-03-04T02:09:38.873Z,58.90
2018-03-04T02:10:38.810Z,57.70
2018-03-04T02:11:38.750Z,57.70
2018-03-04T02:12:38.687Z,56.00
2018-03-04T02:13:38.628Z,56.20
2018-03-04T02:14:38.565Z,54.90
2018-03-04T02:15:38.502Z,54.80
2018-03-04T02:16:38.442Z,55.70
2018-03-04T02:17:38.381Z,53.30
2018-03-04T02:18:38.317Z,51.60
2018-03-04T02:19:38.257Z,54.10
2018-03-04T02:20:38.197Z,53.20
2018-03-04T02:21:38.133Z,51.80
2018-03-04T02:22:38.072Z,51.50
2018-03-04T02:23:38.010Z,49.30
2018-03-04T02:24:37.947Z,50.90
2018-03-04T02:25:37.887Z,49.70
2018-03-04T02:26:37.826Z,48.50
2018-03-04T02:27:37.764Z,49.40
2018-03-04T02:28:37.709Z,48.20
2018-03-04T02:29:37.641Z,47.80
2018-03-04T02:30:37.581Z,47.50
2018-03-04T02:31:37.517Z,47.60
2018-03-04T02:32:37.458Z,49.80
2018-03-04T02:33:37.396Z,49.30
2018-03-04T02:34:37.332Z,49.30
2018-03-04T02:35:37.272Z,50.40
2018-03-04T02:36:37.211Z,51.50
2018-03-04T02:37:37.151Z,50.40
2018-03-04T02:38:37.088Z,48.30
2018-03-04T02:39:37.027Z,48.80
2018-03-04T02:40:36.968Z,50.50
2018-03-04T02:41:36.902Z,48.10
2018-03-04T02:42:36.846Z,48.10
2018-03-04T02:43:36.780Z,49.50
2018-03-04T02:44:36.721Z,50.10
2018-03-04T02:45:36.657Z,49.70
2018-03-04T02:46:36.595Z,49.40
2018-03-04T02:47:36.536Z,50.50
2018-03-04T02:48:36.477Z,51.50
2018-03-04T02:49:36.409Z,50.60
2018-03-04T02:50:36.348Z,51.60
2018-03-04T02:51:36.290Z,50.70
2018-03-04T02:52:36.226Z,49.50
2018-03-04T02:53:36.168Z,48.80
2018-03-04T02:54:36.105Z,50.00
2018-03-04T02:55:36.045Z,49.10
2018-03-04T02:56:35.981Z,55.10
2018-03-04T02:57:35.919Z,52.20
2018-03-04T02:58:35.857Z,50.40
2018-03-04T02:59:35.796Z,52.60
2018-03-04T03:00:35.735Z,54.30
2018-03-04T03:01:35.673Z,53.70
2018-03-04T03:02:35.616Z,54.60
2018-03-04T03:03:35.549Z,57.90
2018-03-04T03:04:35.487Z,56.60
2018-03-04T03:05:35.426Z,55.80
2018-03-04T03:06:35.364Z,58.00
2018-03-04T03:07:35.308Z,58.60
2018-03-04T03:08:35.242Z,58.20
2018-03-04T03:09:35.181Z,60.70
2018-03-04T03:10:35.120Z,62.30
2018-03-04T03:11:35.059Z,60.60
2018-03-04T03:12:34.997Z,58.20
2018-03-04T03:13:34.934Z,60.10
2018-03-04T03:14:34.869Z,61.70
2018-03-04T03:15:34.811Z,59.40
2018-03-04T03:16:34.749Z,62.10
2018-03-04T03:17:34.690Z,61.80
2018-03-04T03:18:34.627Z,61.10
2018-03-04T03:19:34.564Z,63.20
2018-03-04T03:20:34.505Z,62.80
2018-03-04T03:21:34.443Z,64.70
2018-03-04T03:22:34.381Z,63.60
2018-03-04T03:23:34.320Z,65.00
2018-03-04T03:24:34.258Z,61.90
2018-03-04T03:25:34.212Z,65.10
2018-03-04T03:26:34.134Z,64.40
2018-03-04T03:27:34.073Z,65.00
2018-03-04T03:28:34.015Z,65.20
2018-03-04T03:29:33.950Z,65.60
2018-03-04T03:30:33.889Z,65.20
2018-03-04T03:31:33.828Z,65.30
2018-03-04T03:32:33.767Z,64.90
2018-03-04T03:33:33.778Z,65.10
2018-03-04T03:34:33.643Z,66.50
2018-03-04T03:35:33.577Z,66.20
2018-03-04T03:36:33.528Z,67.10
2018-03-04T03:37:33.458Z,62.70
2018-03-04T03:38:33.396Z,65.50
2018-03-04T03:39:33.335Z,62.50
2018-03-04T03:40:33.274Z,68.40
2018-03-04T03:41:33.209Z,66.00
2018-03-04T03:42:33.148Z,65.90
2018-03-04T03:43:33.087Z,63.90
2018-03-04T03:44:33.035Z,65.00
2018-03-04T03:45:32.965Z,63.60
2018-03-04T03:46:32.900Z,65.30
2018-03-04T03:47:32.840Z,66.40
2018-03-04T03:48:32.780Z,65.20
2018-03-04T03:49:32.718Z,65.30
2018-03-04T03:50:32.652Z,65.70
2018-03-04T03:51:32.592Z,66.50
2018-03-04T03:52:32.532Z,66.50
2018-03-04T03:53:32.469Z,65.60
2018-03-04T03:54:32.407Z,62.90
2018-03-04T03:55:32.343Z,64.00
2018-03-04T03:56:32.285Z,64.20
2018-03-04T03:57:32.219Z,64.10
2018-03-04T03:58:32.158Z,61.20
2018-03-04T03:59:32.096Z,60.00
2018-03-04T04:00:32.034Z,61.80
2018-03-04T04:01:31.973Z,58.70
2018-03-04T04:02:31.912Z,58.10
2018-03-04T04:03:31.846Z,54.70
2018-03-04T04:04:31.783Z,56.00
2018-03-04T04:05:31.724Z,56.30
2018-03-04T04:06:31.662Z,58.70
2018-03-04T04:07:31.601Z,54.20
2018-03-04T04:08:31.536Z,56.40
2018-03-04T04:09:31.476Z,57.00
2018-03-04T04:10:31.416Z,60.70
2018-03-04T04:11:31.357Z,58.70
2018-03-04T04:12:31.290Z,60.80
2018-03-04T04:13:31.230Z,62.10
2018-03-04T04:14:31.164Z,60.40
2018-03-04T04:15:31.103Z,59.50
2018-03-04T04:16:31.041Z,60.30
2018-03-04T04:17:30.982Z,60.10
2018-03-04T04:18:30.918Z,61.40
2018-03-04T04:19:30.855Z,61.90
2018-03-04T04:20:30.793Z,59.50
2018-03-04T04:21:30.732Z,61.80
2018-03-04T04:22:30.671Z,60.70
2018-03-04T04:23:30.605Z,60.80
2018-03-04T04:24:30.547Z,61.70
2018-03-04T04:25:30.487Z,60.60
2018-03-04T04:26:30.426Z,58.90
2018-03-04T04:27:30.360Z,61.00
2018-03-04T04:28:30.301Z,59.00
2018-03-04T04:29:30.243Z,61.60
2018-03-04T04:30:30.175Z,58.90
2018-03-04T04:31:30.116Z,58.80
2018-03-04T04:32:30.048Z,58.30
2018-03-04T04:33:29.987Z,60.50
2018-03-04T04:34:29.928Z,58.80
2018-03-04T04:35:29.862Z,58.70
2018-03-04T04:36:29.802Z,61.20
2018-03-04T04:37:29.740Z,59.80
2018-03-04T04:38:29.678Z,58.00
2018-03-04T04:39:29.614Z,59.20
2018-03-04T04:40:29.552Z,59.60
2018-03-04T04:41:29.492Z,59.80
2018-03-04T04:42:29.430Z,57.30
2018-03-04T04:43:29.367Z,58.70
2018-03-04T04:44:29.304Z,60.50
2018-03-04T04:45:29.245Z,60.30
2018-03-04T04:46:29.181Z,60.00
2018-03-04T04:47:29.122Z,61.50
2018-03-04T04:48:29.058Z,59.70
2018-03-04T04:49:28.996Z,59.70
2018-03-04T04:50:28.935Z,59.00
2018-03-04T04:51:28.874Z,58.20
2018-03-04T04:52:28.815Z,58.40
2018-03-04T04:53:28.752Z,57.60
2018-03-04T04:54:28.687Z,58.20
2018-03-04T04:55:28.624Z,56.40
2018-03-04T04:56:28.562Z,57.30
2018-03-04T04:57:28.501Z,56.60
2018-03-04T04:58:28.438Z,64.20
2018-03-04T04:59:28.375Z,63.40
2018-03-04T05:00:28.316Z,63.40
2018-03-04T05:01:28.255Z,60.60
2018-03-04T05:02:28.191Z,59.00
2018-03-04T05:03:28.173Z,60.90
2018-03-04T05:04:28.070Z,62.90
2018-03-04T05:05:28.007Z,57.90
2018-03-04T05:06:27.943Z,59.10
2018-03-04T05:07:27.897Z,57.60
2018-03-04T05:08:27.820Z,57.20
2018-03-04T05:09:27.758Z,63.30
2018-03-04T05:10:27.695Z,63.90
2018-03-04T05:11:27.637Z,57.70
2018-03-04T05:12:27.574Z,55.00
2018-03-04T05:13:27.512Z,56.30
2018-03-04T05:14:27.451Z,57.60
2018-03-04T05:15:27.389Z,57.80
2018-03-04T05:16:27.325Z,59.60
2018-03-04T05:17:27.266Z,61.20
2018-03-04T05:18:27.198Z,65.10
2018-03-04T05:19:27.138Z,68.30
2018-03-04T05:20:27.074Z,66.90
2018-03-04T05:21:27.014Z,67.60
2018-03-04T05:22:26.950Z,69.80
2018-03-04T05:23:26.890Z,71.50
2018-03-04T05:24:26.826Z,71.90
2018-03-04T05:25:26.766Z,70.10
2018-03-04T05:26:26.701Z,72.90
2018-03-04T05:27:26.641Z,75.40
2018-03-04T05:28:26.580Z,74.90
2018-03-04T05:29:26.516Z,75.90
2018-03-04T05:30:26.466Z,83.00
2018-03-04T05:31:26.394Z,82.10
2018-03-04T05:32:26.331Z,82.70
2018-03-04T05:33:26.268Z,79.80
2018-03-04T05:34:26.205Z,83.80
2018-03-04T05:35:26.148Z,76.60
2018-03-04T05:36:26.080Z,77.30
2018-03-04T05:37:26.018Z,78.50
2018-03-04T05:38:25.955Z,74.70
2018-03-04T05:39:25.892Z,75.80
2018-03-04T05:40:25.830Z,75.90
2018-03-04T05:41:25.767Z,79.30
2018-03-04T05:42:25.704Z,75.40
2018-03-04T05:43:25.645Z,74.00
2018-03-04T05:44:25.581Z,77.30
2018-03-04T05:45:25.524Z,78.10
2018-03-04T05:46:25.455Z,80.90
2018-03-04T05:47:25.394Z,87.60
2018-03-04T05:48:25.335Z,87.70
2018-03-04T05:49:25.268Z,87.90
2018-03-04T05:50:25.207Z,90.50
2018-03-04T05:51:25.143Z,93.10
2018-03-04T05:52:25.082Z,90.50
2018-03-04T05:53:25.020Z,86.90
2018-03-04T05:54:24.959Z,87.50
2018-03-04T05:55:24.894Z,88.50
2018-03-04T05:56:24.837Z,89.10
2018-03-04T05:57:24.769Z,90.90
2018-03-04T05:58:24.706Z,90.40
2018-03-04T05:59:24.644Z,91.20
2018-03-04T06:00:24.580Z,84.20
2018-03-04T06:01:24.518Z,83.80
2018-03-04T06:02:24.456Z,85.70
2018-03-04T06:03:24.395Z,90.50
2018-03-04T06:04:24.331Z,86.40
2018-03-04T06:05:24.268Z,87.60
2018-03-04T06:06:24.205Z,87.00
2018-03-04T06:07:24.142Z,85.70
2018-03-04T06:08:24.080Z,83.90
2018-03-04T06:09:24.022Z,81.00
2018-03-04T06:10:23.956Z,82.90
2018-03-04T06:11:23.892Z,85.60
2018-03-04T06:12:23.831Z,80.80
2018-03-04T06:13:23.769Z,79.50
2018-03-04T06:14:23.706Z,82.40
2018-03-04T06:15:23.642Z,79.90
2018-03-04T06:16:23.580Z,81.60
2018-03-04T06:17:23.520Z,81.30
2018-03-04T06:18:23.454Z,78.50
2018-03-04T06:19:23.413Z,77.00
2018-03-04T06:20:23.334Z,82.00
2018-03-04T06:21:23.267Z,77.70
2018-03-04T06:22:23.206Z,77.60
2018-03-04T06:23:23.143Z,78.40
2018-03-04T06:24:23.080Z,77.60
2018-03-04T06:25:23.017Z,78.40
2018-03-04T06:26:22.954Z,80.20
2018-03-04T06:27:22.892Z,84.50
2018-03-04T06:28:22.830Z,83.10
2018-03-04T06:29:22.768Z,77.60
2018-03-04T06:30:22.704Z,77.80
2018-03-04T06:31:22.646Z,77.90
2018-03-04T06:32:22.579Z,76.90
2018-03-04T06:33:22.531Z,77.20
2018-03-04T06:34:22.453Z,77.50
2018-03-04T06:35:22.391Z,77.10
2018-03-04T06:36:22.333Z,75.50
2018-03-04T06:37:22.266Z,72.50
2018-03-04T06:38:22.203Z,76.40
2018-03-04T06:39:22.140Z,74.70
2018-03-04T06:40:22.078Z,75.40
2018-03-04T06:41:22.017Z,74.70
2018-03-04T06:42:21.953Z,77.40
2018-03-04T06:43:21.890Z,75.10
2018-03-04T06:44:21.829Z,79.30
2018-03-04T06:45:21.767Z,80.50
2018-03-04T06:46:21.704Z,71.90
2018-03-04T06:47:21.642Z,73.80
2018-03-04T06:48:21.577Z,74.90
2018-03-04T06:49:21.518Z,72.30
2018-03-04T06:50:21.459Z,70.90
2018-03-04T06:51:21.391Z,70.20
2018-03-04T06:52:21.328Z,70.40
2018-03-04T06:53:21.266Z,71.70
2018-03-04T06:54:21.204Z,72.30
2018-03-04T06:55:21.144Z,71.30
2018-03-04T06:56:21.082Z,69.90
2018-03-04T06:57:21.017Z,71.80
2018-03-04T06:58:20.955Z,67.10
2018-03-04T06:59:20.894Z,65.90
2018-03-04T07:00:20.831Z,70.90
2018-03-04T07:01:20.770Z,66.80
2018-03-04T07:02:20.705Z,66.60
2018-03-04T07:03:20.645Z,63.00
2018-03-04T07:04:20.586Z,65.60
2018-03-04T07:05:20.520Z,66.00
2018-03-04T07:06:20.459Z,63.40
2018-03-04T07:07:20.395Z,59.70
2018-03-04T07:08:20.336Z,62.50
2018-03-04T07:09:20.272Z,58.10
2018-03-04T07:10:20.209Z,62.20
2018-03-04T07:11:20.148Z,59.90
2018-03-04T07:12:20.090Z,61.30
2018-03-04T07:13:20.024Z,60.40
2018-03-04T07:14:19.961Z,65.70
2018-03-04T07:15:19.902Z,63.10
2018-03-04T07:16:19.834Z,64.40
2018-03-04T07:17:19.778Z,63.30
2018-03-04T07:18:19.713Z,62.40
2018-03-04T07:19:19.650Z,64.00
2018-03-04T07:20:19.589Z,60.00
2018-03-04T07:21:19.534Z,60.30
2018-03-04T07:22:19.462Z,61.00
2018-03-04T07:23:19.400Z,58.60
2018-03-04T07:24:19.345Z,59.50
2018-03-04T07:25:19.277Z,54.70
2018-03-04T07:26:19.217Z,58.70
2018-03-04T07:27:19.153Z,56.90
2018-03-04T07:28:19.089Z,56.50
2018-03-04T07:29:19.031Z,54.70
2018-03-04T07:30:18.967Z,52.80
2018-03-04T07:31:18.902Z,53.20
2018-03-04T07:32:18.840Z,53.80
2018-03-04T07:33:18.786Z,52.80
2018-03-04T07:34:18.717Z,48.00
2018-03-04T07:35:18.654Z,48.60
2018-03-04T07:36:18.595Z,49.90
2018-03-04T07:37:18.531Z,51.50
2018-03-04T07:38:18.466Z,49.20
2018-03-04T07:39:18.410Z,51.10
2018-03-04T07:40:18.343Z,49.40
2018-03-04T07:41:18.282Z,47.30
2018-03-04T07:42:18.218Z,48.00
2018-03-04T07:43:18.165Z,49.60
2018-03-04T07:44:18.093Z,46.50
2018-03-04T07:45:18.030Z,44.00
2018-03-04T07:46:17.970Z,42.80
2018-03-04T07:47:17.953Z,45.30
2018-03-04T07:48:17.847Z,43.40
2018-03-04T07:49:17.782Z,44.10
2018-03-04T07:50:17.721Z,44.00
2018-03-04T07:51:17.659Z,42.00
2018-03-04T07:52:17.598Z,42.10
2018-03-04T07:53:17.534Z,44.70
2018-03-04T07:54:17.473Z,46.10
2018-03-04T07:55:17.410Z,42.70
2018-03-04T07:56:17.349Z,42.30
2018-03-04T07:57:17.288Z,41.20
2018-03-04T07:58:17.226Z,37.30
2018-03-04T07:59:17.161Z,38.20
2018-03-04T08:00:17.104Z,35.30
2018-03-04T08:01:17.040Z,36.20
2018-03-04T08:02:16.977Z,36.70
2018-03-04T08:03:16.914Z,34.70
2018-03-04T08:04:16.857Z,35.60
2018-03-04T08:05:16.791Z,37.00
2018-03-04T08:06:16.729Z,34.80
2018-03-04T08:07:16.674Z,37.20
2018-03-04T08:08:16.604Z,36.30
2018-03-04T08:09:16.540Z,32.60
2018-03-04T08:10:16.483Z,33.20
2018-03-04T08:11:16.420Z,35.10
2018-03-04T08:12:16.360Z,33.70
2018-03-04T08:13:16.301Z,34.10
2018-03-04T08:14:16.236Z,32.60
2018-03-04T08:15:16.173Z,32.90
2018-03-04T08:16:16.112Z,32.40
2018-03-04T08:17:16.055Z,33.40
2018-03-04T08:18:15.991Z,32.20
2018-03-04T08:19:15.931Z,30.60
2018-03-04T08:20:15.868Z,30.20
2018-03-04T08:21:15.810Z,29.30
2018-03-04T08:22:15.747Z,32.20
2018-03-04T08:23:15.685Z,31.50
2018-03-04T08:24:15.625Z,30.50
2018-03-04T08:25:15.566Z,33.00
2018-03-04T08:26:15.503Z,32.80
2018-03-04T08:27:15.440Z,30.60
2018-03-04T08:28:15.382Z,31.30
2018-03-04T08:29:15.318Z,30.90
2018-03-04T08:30:15.257Z,32.00
2018-03-04T08:31:15.198Z,30.60
2018-03-04T08:32:15.137Z,30.10
2018-03-04T08:33:15.076Z,31.10
2018-03-04T08:34:15.015Z,31.30
2018-03-04T08:35:14.952Z,30.40
2018-03-04T08:36:14.907Z,31.30
2018-03-04T08:37:14.831Z,30.30
2018-03-04T08:38:14.769Z,30.50
2018-03-04T08:39:14.706Z,30.40
2018-03-04T08:40:14.649Z,29.10
2018-03-04T08:41:14.588Z,29.50
2018-03-04T08:42:14.524Z,28.70
2018-03-04T08:43:14.463Z,29.30
2018-03-04T08:44:14.404Z,28.80
2018-03-04T08:45:14.343Z,30.00
2018-03-04T08:46:14.282Z,30.60
2018-03-04T08:47:14.220Z,30.00
2018-03-04T08:48:14.157Z,32.00
2018-03-04T08:49:14.097Z,31.20
2018-03-04T08:50:14.037Z,30.40
2018-03-04T08:51:13.976Z,30.20
2018-03-04T08:52:13.915Z,31.50
2018-03-04T08:53:13.854Z,31.20
2018-03-04T08:54:13.794Z,31.60
2018-03-04T08:55:13.732Z,30.50
2018-03-04T08:56:13.674Z,28.50
2018-03-04T08:57:13.611Z,27.40
2018-03-04T08:58:13.550Z,30.50
2018-03-04T08:59:13.499Z,28.80
2018-03-04T09:00:13.437Z,28.60
2018-03-04T09:01:13.372Z,29.10
2018-03-04T09:02:13.347Z,27.20
2018-03-04T09:03:13.245Z,28.10
2018-03-04T09:04:13.183Z,27.20
2018-03-04T09:05:13.126Z,26.80
2018-03-04T09:06:13.077Z,27.40
2018-03-04T09:07:13.009Z,25.00
2018-03-04T09:08:12.942Z,25.10
2018-03-04T09:09:12.882Z,26.00
2018-03-04T09:10:12.823Z,25.30
2018-03-04T09:11:12.762Z,25.70
2018-03-04T09:12:12.698Z,26.10
2018-03-04T09:13:12.637Z,26.40
2018-03-04T09:14:12.578Z,26.10
2018-03-04T09:15:12.518Z,26.90
2018-03-04T09:16:12.458Z,27.30
2018-03-04T09:17:12.400Z,28.30
2018-03-04T09:18:12.336Z,26.50
2018-03-04T09:19:12.275Z,26.70
2018-03-04T09:20:12.214Z,26.80
2018-03-04T09:21:12.155Z,26.20
2018-03-04T09:22:12.093Z,26.10
2018-03-04T09:23:12.034Z,26.30
2018-03-04T09:24:11.976Z,24.60
2018-03-04T09:25:11.914Z,25.50
2018-03-04T09:26:11.852Z,25.90
2018-03-04T09:27:11.793Z,27.00
2018-03-04T09:28:11.733Z,26.90
2018-03-04T09:29:11.671Z,27.50
2018-03-04T09:30:11.611Z,26.70
2018-03-04T09:31:11.551Z,27.10
2018-03-04T09:32:11.490Z,27.80
2018-03-04T09:33:11.450Z,25.60
2018-03-04T09:34:11.379Z,27.20
2018-03-04T09:35:11.311Z,26.30
2018-03-04T09:36:11.252Z,27.50
2018-03-04T09:37:11.191Z,25.70
2018-03-04T09:38:11.131Z,26.60
2018-03-04T09:39:11.072Z,27.60
2018-03-04T09:40:11.010Z,28.10
2018-03-04T09:41:10.950Z,27.10
2018-03-04T09:42:10.891Z,28.80
2018-03-04T09:43:10.832Z,28.50
2018-03-04T09:44:10.769Z,29.10
2018-03-04T09:45:10.710Z,27.80
2018-03-04T09:46:10.653Z,28.80
2018-03-04T09:47:10.591Z,28.50
2018-03-04T09:48:10.531Z,28.10
2018-03-04T09:49:10.472Z,28.50
2018-03-04T09:50:10.411Z,27.90
2018-03-04T09:51:10.355Z,29.30
2018-03-04T09:52:10.292Z,29.50
2018-03-04T09:53:10.231Z,30.40
2018-03-04T09:54:10.171Z,31.30
2018-03-04T09:55:10.114Z,31.00
2018-03-04T09:56:10.055Z,32.50
2018-03-04T09:57:09.995Z,31.50
2018-03-04T09:58:09.935Z,30.70
2018-03-04T09:59:09.876Z,29.40
2018-03-04T10:00:09.816Z,31.60
2018-03-04T10:01:09.758Z,30.20
2018-03-04T10:02:09.714Z,30.20
2018-03-04T10:03:09.640Z,30.60
2018-03-04T10:04:09.580Z,31.00
2018-03-04T10:05:09.520Z,32.20
2018-03-04T10:06:09.460Z,32.10
2018-03-04T10:07:09.406Z,29.00
2018-03-04T10:08:09.342Z,30.60
2018-03-04T10:09:09.287Z,30.80
2018-03-04T10:10:09.225Z,31.20
2018-03-04T10:11:09.164Z,30.70
2018-03-04T10:12:09.106Z,31.30
2018-03-04T10:13:09.048Z,30.20
2018-03-04T10:14:08.992Z,31.70
2018-03-04T10:15:08.932Z,31.10
2018-03-04T10:16:08.869Z,31.30
2018-03-04T10:17:08.810Z,29.40
2018-03-04T10:18:08.750Z,30.40
2018-03-04T10:19:08.690Z,31.40
2018-03-04T10:20:08.632Z,30.20
2018-03-04T10:21:08.572Z,29.20
2018-03-04T10:22:08.513Z,28.20
2018-03-04T10:23:08.453Z,26.60
2018-03-04T10:24:08.398Z,26.60
2018-03-04T10:25:08.338Z,28.00
2018-03-04T10:26:08.326Z,26.60
2018-03-04T10:27:08.221Z,27.30
2018-03-04T10:28:08.160Z,27.30
2018-03-04T10:29:08.102Z,26.50
2018-03-04T10:30:08.039Z,28.00
2018-03-04T10:31:07.983Z,26.80
2018-03-04T10:32:07.923Z,27.60
2018-03-04T10:33:07.863Z,24.80
2018-03-04T10:34:07.802Z,25.60
2018-03-04T10:35:07.746Z,24.60
2018-03-04T10:36:07.686Z,25.80
2018-03-04T10:37:07.627Z,25.80
2018-03-04T10:38:07.572Z,24.10
2018-03-04T10:39:07.509Z,23.20
2018-03-04T10:40:07.449Z,22.10
2018-03-04T10:41:07.391Z,22.50
2018-03-04T10:42:07.330Z,22.80
2018-03-04T10:43:07.274Z,23.80
2018-03-04T10:44:07.215Z,23.30
2018-03-04T10:45:07.153Z,22.90
2018-03-04T10:46:07.101Z,22.70
2018-03-04T10:47:07.035Z,22.20
2018-03-04T10:48:06.977Z,23.40
2018-03-04T10:49:06.917Z,22.50
2018-03-04T10:50:06.860Z,22.20
2018-03-04T10:51:06.799Z,21.50
2018-03-04T10:52:06.742Z,21.90
2018-03-04T10:53:06.681Z,21.30
2018-03-04T10:54:06.622Z,22.00
2018-03-04T10:55:06.562Z,21.90
2018-03-04T10:56:06.503Z,22.60
2018-03-04T10:57:06.446Z,21.90
2018-03-04T10:58:06.388Z,22.30
2018-03-04T10:59:06.326Z,23.80
2018-03-04T11:00:06.268Z,23.50
2018-03-04T11:01:06.215Z,22.80
2018-03-04T11:02:06.148Z,22.70
2018-03-04T11:03:06.090Z,21.90
2018-03-04T11:04:06.032Z,22.60
2018-03-04T11:05:05.978Z,23.30
2018-03-04T11:06:05.912Z,23.60
2018-03-04T11:07:05.847Z,23.50
2018-03-04T11:08:05.796Z,24.30
2018-03-04T11:09:05.745Z,24.20
2018-03-04T11:10:05.677Z,23.00
2018-03-04T11:11:05.618Z,21.90
2018-03-04T11:12:05.564Z,23.70
2018-03-04T11:13:05.502Z,23.10
2018-03-04T11:14:05.443Z,21.90
2018-03-04T11:15:05.384Z,22.80
2018-03-04T11:16:05.327Z,21.20
2018-03-04T11:17:05.267Z,20.90
2018-03-04T11:18:05.208Z,22.50
2018-03-04T11:19:05.150Z,20.80
2018-03-04T11:20:05.092Z,21.10
2018-03-04T11:21:05.033Z,21.80
2018-03-04T11:22:04.974Z,21.20
2018-03-04T11:23:04.915Z,21.30
2018-03-04T11:24:04.858Z,20.50
2018-03-04T11:25:04.809Z,21.70
2018-03-04T11:26:04.739Z,21.10
2018-03-04T11:27:04.686Z,21.60
2018-03-04T11:28:04.627Z,20.60
2018-03-04T11:29:04.566Z,21.30
2018-03-04T11:30:04.508Z,21.10
2018-03-04T11:31:04.446Z,20.60
2018-03-04T11:32:04.390Z,20.90
2018-03-04T11:33:04.331Z,21.00
2018-03-04T11:34:04.272Z,21.60
2018-03-04T11:35:04.220Z,21.20
2018-03-04T11:36:04.155Z,19.60
2018-03-04T11:37:04.095Z,20.00
2018-03-04T11:38:04.036Z,21.60
2018-03-04T11:39:04.012Z,20.50
2018-03-04T11:40:03.925Z,20.70
2018-03-04T11:41:03.863Z,21.80
2018-03-04T11:42:03.801Z,22.70
2018-03-04T11:43:03.744Z,21.70
2018-03-04T11:44:03.686Z,22.20
2018-03-04T11:45:03.653Z,21.80
2018-03-04T11:46:03.569Z,21.00
2018-03-04T11:47:03.508Z,20.30
2018-03-04T11:48:03.448Z,20.20
2018-03-04T11:49:03.391Z,21.00
2018-03-04T11:50:03.330Z,20.80
2018-03-04T11:51:03.273Z,21.70
2018-03-04T11:52:03.216Z,20.40
2018-03-04T11:53:03.156Z,20.80
2018-03-04T11:54:03.094Z,20.60
2018-03-04T11:55:03.036Z,20.20
2018-03-04T11:56:02.976Z,20.60
2018-03-04T11:57:02.919Z,20.10
2018-03-04T11:58:02.861Z,21.70
2018-03-04T11:59:02.800Z,22.20
2018-03-04T12:00:02.746Z,22.60
2018-03-04T12:01:02.687Z,23.40
2018-03-04T12:02:02.621Z,22.80
2018-03-04T12:03:02.565Z,22.90
2018-03-04T12:04:02.507Z,24.40
2018-03-04T12:05:02.453Z,22.60
2018-03-04T12:06:02.387Z,22.50
2018-03-04T12:07:02.329Z,21.90
2018-03-04T12:08:02.270Z,22.70
2018-03-04T12:09:02.211Z,21.60
2018-03-04T12:10:02.148Z,22.80
2018-03-04T12:11:02.087Z,22.20
2018-03-04T12:12:02.030Z,22.30
2018-03-04T12:13:01.970Z,21.90
2018-03-04T12:14:01.910Z,22.00
2018-03-04T12:15:01.853Z,22.50
2018-03-04T12:16:01.792Z,22.20
2018-03-04T12:17:01.731Z,22.80
2018-03-04T12:18:01.673Z,22.60
2018-03-04T12:19:01.613Z,23.60
2018-03-04T12:20:01.544Z,23.50
2018-03-04T12:21:01.493Z,22.50
2018-03-04T12:22:01.435Z,23.30
2018-03-04T12:23:01.374Z,24.40
2018-03-04T12:24:01.328Z,23.40
2018-03-04T12:25:01.256Z,23.40
2018-03-04T12:26:01.196Z,23.10
2018-03-04T12:27:01.136Z,23.20
2018-03-04T12:28:01.077Z,23.00
2018-03-04T12:29:01.018Z,22.30
2018-03-04T12:30:00.957Z,23.00
2018-03-04T12:31:00.903Z,23.50
2018-03-04T12:32:00.838Z,22.30
2018-03-04T12:33:00.780Z,21.50
2018-03-04T12:34:00.720Z,21.20
2018-03-04T12:35:00.659Z,21.30
2018-03-04T12:36:00.605Z,21.40
2018-03-04T12:37:00.541Z,19.60
2018-03-04T12:38:00.476Z,20.20
2018-03-04T12:39:00.423Z,19.90
2018-03-04T12:40:00.365Z,19.30
2018-03-04T12:41:00.304Z,19.30
2018-03-04T12:42:00.245Z,19.80
2018-03-04T12:43:00.186Z,20.40
2018-03-04T12:44:00.127Z,20.10
2018-03-04T12:45:00.068Z,19.80
2018-03-04T12:46:00.011Z,19.90
2018-03-04T12:46:59.949Z,20.10
2018-03-04T12:47:59.888Z,20.70
2018-03-04T12:48:59.830Z,20.80
2018-03-04T12:49:59.772Z,20.00
2018-03-04T12:50:59.711Z,20.50
2018-03-04T12:51:59.651Z,19.70